Terminal Aerodrome Forecast
Issued by NWS

Home | Current Version | Previous Version | Text Only | Print | Product List | Glossary On
Versions: 1 2 3 4 5 6 7 8 9 10 11 12 13 14 15 16
000
FTUS43 KDLH 010527
TAFHYR
TAF
KHYR 010527Z 0106/0206 00000KT P6SM SKC
     FM011600 29007KT P6SM SKC
     FM012000 25009KT P6SM FEW040 FEW090
     FM020300 VRB04KT P6SM VCSH BKN100=

USA.gov is the U.S. government's official web portal to all federal, state and local government web resources and services.